Fresno Yosemite International Airport Fresno US
ICAO: KFAT
IATA: FAT
Category: Medium
Scheduled Services: Yes

Elevation: 336 ft
TransAlt. 18000 ft.

Airport Communications:
APP/DEP:35.195
APP/DEP:118.5
ATIS:121.35
CLNC DEL:124.35
GND:121.7
ANG OPS:138.15
ARNG OPS:40.95
RANCHO RDO:122.2
TWR:118.2
UNICOM:122.95

KFAT Zoom In..

Runways:

(A) RW 11L length 9539 ft width 150 ft
LOC 111.30 / hdg 111

(B) RW 11R length 8008 ft width 150 ft
LOC 111.30 / hdg 111

(C) RW 29L length 8008 ft width 150 ft
LOC 111.30 / hdg 291

(D) RW 29R length 9539 ft width 150 ft
ILS 111.30 / hdg 291

Location; KFAT
Day. 26 / Time. 13.53 Zulu
* Altimeter: 30.05
* Temperature: 13° c. 55.4°f.
* Wind from: 300° Speed 11 kn.
Dewpoint: 10° c.
Visibility: 10 Statute Miles.
Clouds: Few 2000 ft.
Clouds: Few 15000 ft.

KFAT 261353Z 30011KT 10SM FEW020 FEW150 13/10 A3005 RMK AO2 SLP173 MTNS OBSC DSNT N-E-SE T01330100


Wind From 300°
Speed 11 kn.

 
 
jpsmedia.com for Web Design SOUNDCLOUD worldairports.se 2018   terms of use